Search for airport 
image banner adimage banner ad
image banner ad

SBAR - Santa Maria

Located in Aracaju, Brazil

ICAO - SBAR, IATA - AJU

Data provided by Airmate  

General information

Coordinates: S10°59'7" W37°4'24"
Elevation is 22 feet MSL.
Magnetic variation is -23° East
View others Airports in Sergipe

Operational data

Special qualification required
Current time UTC:
Current local time:
Weather
METAR: SBAR 011900Z 07009KT 9999 SCT020 OVC048 27/22 Q1008
TAF: TAF SBAR 011520Z 0118/0218 13013KT 8000 SCT022 FEW025TCU TN25/0208Z TX31/0216Z BECMG 0120/0123 12010KT 9999 SCT017 BECMG 0203/0205 08007KT 7000 BECMG 0209/0211 11010KT 8000 BKN017 FEW025TCU BECMG 0215/0218 12015KT 9999 SCT020 RMK PHN
View NOTAMs / SUP AIP / TFR affecting this airport [VIEW]
Communications frequencies: [VIEW]

Runways:

RWY identifierQFULength (ft)Width (ft)SurfaceLDA (ft)
1292°7218148
30272°7218148

Airport contact information

Address: Aracaju Brazil

Other aviation service providers

Aviation club (not for profit)

Aeroclube De Sergipe

Aeroclube De Sergipe
+55793241-3646

Satellite view of SBAR